sensor_id;sensor_type;location;lat;lon;timestamp;P1;durP1;ratioP1;P2;durP2;ratioP2
6987;SDS011;3534;49.960;8.018;2023-11-21T00:02:05;2.03;;;1.90;;
6987;SDS011;3534;49.960;8.018;2023-11-21T00:04:32;4.03;;;2.30;;
6987;SDS011;3534;49.960;8.018;2023-11-21T00:06:58;5.13;;;1.70;;
6987;SDS011;3534;49.960;8.018;2023-11-21T00:09:25;2.80;;;2.23;;
6987;SDS011;3534;49.960;8.018;2023-11-21T00:11:53;2.40;;;2.00;;
6987;SDS011;3534;49.960;8.018;2023-11-21T00:14:20;5.30;;;1.93;;
6987;SDS011;3534;49.960;8.018;2023-11-21T00:16:47;3.67;;;2.20;;
6987;SDS011;3534;49.960;8.018;2023-11-21T00:19:13;3.33;;;2.77;;
6987;SDS011;3534;49.960;8.018;2023-11-21T00:21:41;3.83;;;2.20;;
6987;SDS011;3534;49.960;8.018;2023-11-21T00:24:09;3.93;;;2.07;;
6987;SDS011;3534;49.960;8.018;2023-11-21T00:26:38;2.57;;;2.30;;
6987;SDS011;3534;49.960;8.018;2023-11-21T00:29:06;1.87;;;1.70;;
6987;SDS011;3534;49.960;8.018;2023-11-21T00:31:34;2.27;;;2.07;;
6987;SDS011;3534;49.960;8.018;2023-11-21T00:34:01;3.47;;;2.40;;
6987;SDS011;3534;49.960;8.018;2023-11-21T00:36:30;4.37;;;1.77;;
6987;SDS011;3534;49.960;8.018;2023-11-21T00:38:56;3.93;;;1.57;;
6987;SDS011;3534;49.960;8.018;2023-11-21T00:41:24;5.87;;;1.97;;
6987;SDS011;3534;49.960;8.018;2023-11-21T00:43:52;1.60;;;1.50;;
6987;SDS011;3534;49.960;8.018;2023-11-21T00:46:20;3.13;;;1.93;;
6987;SDS011;3534;49.960;8.018;2023-11-21T00:48:49;3.93;;;1.77;;
6987;SDS011;3534;49.960;8.018;2023-11-21T00:51:15;2.13;;;1.73;;
6987;SDS011;3534;49.960;8.018;2023-11-21T00:53:42;3.00;;;1.63;;
6987;SDS011;3534;49.960;8.018;2023-11-21T00:56:09;2.00;;;1.80;;
6987;SDS011;3534;49.960;8.018;2023-11-21T00:58:35;2.83;;;2.07;;
6987;SDS011;3534;49.960;8.018;2023-11-21T01:01:02;2.10;;;1.80;;
6987;SDS011;3534;49.960;8.018;2023-11-21T01:03:30;4.60;;;2.00;;
6987;SDS011;3534;49.960;8.018;2023-11-21T01:05:57;4.80;;;2.90;;
6987;SDS011;3534;49.960;8.018;2023-11-21T01:08:24;2.60;;;1.80;;
6987;SDS011;3534;49.960;8.018;2023-11-21T01:10:50;3.50;;;2.00;;
6987;SDS011;3534;49.960;8.018;2023-11-21T01:13:17;3.33;;;2.00;;
6987;SDS011;3534;49.960;8.018;2023-11-21T01:15:44;7.30;;;2.20;;
6987;SDS011;3534;49.960;8.018;2023-11-21T01:18:11;2.40;;;2.07;;
6987;SDS011;3534;49.960;8.018;2023-11-21T01:20:39;3.17;;;2.87;;
6987;SDS011;3534;49.960;8.018;2023-11-21T01:23:06;3.23;;;2.40;;
6987;SDS011;3534;49.960;8.018;2023-11-21T01:25:32;4.17;;;2.50;;
6987;SDS011;3534;49.960;8.018;2023-11-21T01:27:59;2.30;;;2.10;;
6987;SDS011;3534;49.960;8.018;2023-11-21T01:30:26;3.40;;;2.60;;
6987;SDS011;3534;49.960;8.018;2023-11-21T01:32:52;4.63;;;2.47;;
6987;SDS011;3534;49.960;8.018;2023-11-21T01:35:19;2.93;;;2.20;;
6987;SDS011;3534;49.960;8.018;2023-11-21T01:37:47;4.30;;;2.57;;
6987;SDS011;3534;49.960;8.018;2023-11-21T01:40:14;4.87;;;2.63;;
6987;SDS011;3534;49.960;8.018;2023-11-21T01:42:41;3.77;;;2.87;;
6987;SDS011;3534;49.960;8.018;2023-11-21T01:45:08;3.40;;;2.33;;
6987;SDS011;3534;49.960;8.018;2023-11-21T01:47:37;2.83;;;2.63;;
6987;SDS011;3534;49.960;8.018;2023-11-21T01:50:05;4.07;;;2.77;;
6987;SDS011;3534;49.960;8.018;2023-11-21T01:52:33;3.27;;;2.47;;
6987;SDS011;3534;49.960;8.018;2023-11-21T01:55:02;2.53;;;2.33;;
6987;SDS011;3534;49.960;8.018;2023-11-21T01:57:31;3.63;;;2.53;;
6987;SDS011;3534;49.960;8.018;2023-11-21T01:59:58;2.50;;;2.30;;
6987;SDS011;3534;49.960;8.018;2023-11-21T02:02:29;2.80;;;2.07;;
6987;SDS011;3534;49.960;8.018;2023-11-21T02:04:56;2.67;;;2.20;;
6987;SDS011;3534;49.960;8.018;2023-11-21T02:07:22;7.63;;;2.87;;
6987;SDS011;3534;49.960;8.018;2023-11-21T02:09:50;2.80;;;2.30;;
6987;SDS011;3534;49.960;8.018;2023-11-21T02:12:18;4.27;;;2.63;;
6987;SDS011;3534;49.960;8.018;2023-11-21T02:14:45;3.60;;;2.23;;
6987;SDS011;3534;49.960;8.018;2023-11-21T02:17:11;2.43;;;2.20;;
6987;SDS011;3534;49.960;8.018;2023-11-21T02:19:39;2.83;;;2.00;;
6987;SDS011;3534;49.960;8.018;2023-11-21T02:22:06;3.30;;;2.30;;
6987;SDS011;3534;49.960;8.018;2023-11-21T02:24:35;3.30;;;2.37;;
6987;SDS011;3534;49.960;8.018;2023-11-21T02:27:01;2.60;;;2.40;;
6987;SDS011;3534;49.960;8.018;2023-11-21T02:29:28;3.50;;;3.20;;
6987;SDS011;3534;49.960;8.018;2023-11-21T02:31:55;4.97;;;2.50;;
6987;SDS011;3534;49.960;8.018;2023-11-21T02:34:22;4.30;;;2.93;;
6987;SDS011;3534;49.960;8.018;2023-11-21T02:36:49;2.47;;;2.27;;
6987;SDS011;3534;49.960;8.018;2023-11-21T02:39:16;3.10;;;2.60;;
6987;SDS011;3534;49.960;8.018;2023-11-21T02:41:48;6.10;;;2.60;;
6987;SDS011;3534;49.960;8.018;2023-11-21T02:44:15;3.60;;;2.50;;
6987;SDS011;3534;49.960;8.018;2023-11-21T02:46:41;4.40;;;2.83;;
6987;SDS011;3534;49.960;8.018;2023-11-21T02:49:08;3.07;;;2.80;;
6987;SDS011;3534;49.960;8.018;2023-11-21T02:51:35;5.33;;;3.40;;
6987;SDS011;3534;49.960;8.018;2023-11-21T02:54:03;4.80;;;3.03;;
6987;SDS011;3534;49.960;8.018;2023-11-21T02:56:31;5.73;;;3.70;;
6987;SDS011;3534;49.960;8.018;2023-11-21T02:58:59;3.63;;;3.20;;
6987;SDS011;3534;49.960;8.018;2023-11-21T03:01:26;5.60;;;3.60;;
6987;SDS011;3534;49.960;8.018;2023-11-21T03:03:53;4.43;;;3.00;;
6987;SDS011;3534;49.960;8.018;2023-11-21T03:06:21;3.93;;;3.20;;
6987;SDS011;3534;49.960;8.018;2023-11-21T03:08:48;4.37;;;3.47;;
6987;SDS011;3534;49.960;8.018;2023-11-21T03:11:15;5.70;;;4.10;;
6987;SDS011;3534;49.960;8.018;2023-11-21T03:13:42;7.10;;;4.07;;
6987;SDS011;3534;49.960;8.018;2023-11-21T03:16:11;3.37;;;3.00;;
6987;SDS011;3534;49.960;8.018;2023-11-21T03:18:38;5.30;;;3.30;;
6987;SDS011;3534;49.960;8.018;2023-11-21T03:21:05;3.37;;;3.07;;
6987;SDS011;3534;49.960;8.018;2023-11-21T03:23:33;4.60;;;3.53;;
6987;SDS011;3534;49.960;8.018;2023-11-21T03:26:00;5.10;;;3.73;;
6987;SDS011;3534;49.960;8.018;2023-11-21T03:28:27;4.97;;;4.03;;
6987;SDS011;3534;49.960;8.018;2023-11-21T03:30:55;5.93;;;4.33;;
6987;SDS011;3534;49.960;8.018;2023-11-21T03:33:23;6.93;;;4.50;;
6987;SDS011;3534;49.960;8.018;2023-11-21T03:35:50;7.63;;;5.10;;
6987;SDS011;3534;49.960;8.018;2023-11-21T03:38:18;9.53;;;4.93;;
6987;SDS011;3534;49.960;8.018;2023-11-21T03:40:45;6.13;;;5.10;;
6987;SDS011;3534;49.960;8.018;2023-11-21T03:43:12;6.30;;;5.10;;
6987;SDS011;3534;49.960;8.018;2023-11-21T03:45:39;8.70;;;4.77;;
6987;SDS011;3534;49.960;8.018;2023-11-21T03:48:06;5.80;;;4.57;;
6987;SDS011;3534;49.960;8.018;2023-11-21T03:50:35;5.80;;;4.70;;
6987;SDS011;3534;49.960;8.018;2023-11-21T03:53:01;7.20;;;5.27;;
6987;SDS011;3534;49.960;8.018;2023-11-21T03:55:28;7.80;;;5.17;;
6987;SDS011;3534;49.960;8.018;2023-11-21T03:57:56;5.27;;;4.77;;
6987;SDS011;3534;49.960;8.018;2023-11-21T04:00:23;6.70;;;4.67;;
6987;SDS011;3534;49.960;8.018;2023-11-21T04:02:51;6.40;;;4.47;;
6987;SDS011;3534;49.960;8.018;2023-11-21T04:05:19;6.37;;;5.67;;
6987;SDS011;3534;49.960;8.018;2023-11-21T04:07:48;9.27;;;6.20;;
6987;SDS011;3534;49.960;8.018;2023-11-21T04:10:16;7.80;;;6.30;;
6987;SDS011;3534;49.960;8.018;2023-11-21T04:12:43;5.90;;;4.00;;
6987;SDS011;3534;49.960;8.018;2023-11-21T04:15:10;4.27;;;3.50;;
6987;SDS011;3534;49.960;8.018;2023-11-21T04:17:38;6.53;;;4.83;;
6987;SDS011;3534;49.960;8.018;2023-11-21T04:20:05;5.43;;;4.73;;
6987;SDS011;3534;49.960;8.018;2023-11-21T04:22:35;7.47;;;6.00;;
6987;SDS011;3534;49.960;8.018;2023-11-21T04:25:07;10.07;;;6.03;;
6987;SDS011;3534;49.960;8.018;2023-11-21T04:27:34;10.27;;;6.77;;
6987;SDS011;3534;49.960;8.018;2023-11-21T04:30:01;8.10;;;6.23;;
6987;SDS011;3534;49.960;8.018;2023-11-21T04:32:27;7.30;;;5.53;;
6987;SDS011;3534;49.960;8.018;2023-11-21T04:34:54;6.70;;;4.87;;
6987;SDS011;3534;49.960;8.018;2023-11-21T04:37:21;6.27;;;5.30;;
6987;SDS011;3534;49.960;8.018;2023-11-21T04:39:47;6.20;;;5.00;;
6987;SDS011;3534;49.960;8.018;2023-11-21T04:42:15;5.73;;;4.80;;
6987;SDS011;3534;49.960;8.018;2023-11-21T04:44:42;5.00;;;4.50;;
6987;SDS011;3534;49.960;8.018;2023-11-21T04:47:09;6.80;;;4.43;;
6987;SDS011;3534;49.960;8.018;2023-11-21T04:49:36;3.93;;;3.53;;
6987;SDS011;3534;49.960;8.018;2023-11-21T04:52:02;4.13;;;3.53;;
6987;SDS011;3534;49.960;8.018;2023-11-21T04:54:30;4.63;;;3.30;;
6987;SDS011;3534;49.960;8.018;2023-11-21T04:56:57;4.37;;;3.40;;
6987;SDS011;3534;49.960;8.018;2023-11-21T04:59:25;4.93;;;3.57;;
6987;SDS011;3534;49.960;8.018;2023-11-21T05:01:52;2.70;;;2.50;;
6987;SDS011;3534;49.960;8.018;2023-11-21T05:04:19;4.00;;;3.50;;
6987;SDS011;3534;49.960;8.018;2023-11-21T05:06:47;7.03;;;4.00;;
6987;SDS011;3534;49.960;8.018;2023-11-21T05:09:13;5.40;;;4.47;;
6987;SDS011;3534;49.960;8.018;2023-11-21T05:11:40;4.97;;;4.43;;
6987;SDS011;3534;49.960;8.018;2023-11-21T05:14:07;8.70;;;6.87;;
6987;SDS011;3534;49.960;8.018;2023-11-21T05:16:35;7.37;;;5.67;;
6987;SDS011;3534;49.960;8.018;2023-11-21T05:19:03;6.60;;;4.97;;
6987;SDS011;3534;49.960;8.018;2023-11-21T05:21:30;7.20;;;5.20;;
6987;SDS011;3534;49.960;8.018;2023-11-21T05:23:57;6.23;;;4.70;;
6987;SDS011;3534;49.960;8.018;2023-11-21T05:26:24;5.63;;;4.20;;
6987;SDS011;3534;49.960;8.018;2023-11-21T05:28:51;6.20;;;4.37;;
6987;SDS011;3534;49.960;8.018;2023-11-21T05:31:18;6.57;;;3.43;;
6987;SDS011;3534;49.960;8.018;2023-11-21T05:33:46;3.73;;;3.10;;
6987;SDS011;3534;49.960;8.018;2023-11-21T05:36:13;4.30;;;3.03;;
6987;SDS011;3534;49.960;8.018;2023-11-21T05:38:40;4.40;;;3.77;;
6987;SDS011;3534;49.960;8.018;2023-11-21T05:41:07;4.10;;;3.53;;
6987;SDS011;3534;49.960;8.018;2023-11-21T05:43:36;4.83;;;4.20;;
6987;SDS011;3534;49.960;8.018;2023-11-21T05:46:02;5.87;;;4.60;;
6987;SDS011;3534;49.960;8.018;2023-11-21T05:48:29;7.47;;;3.70;;
6987;SDS011;3534;49.960;8.018;2023-11-21T05:50:57;3.47;;;3.20;;
6987;SDS011;3534;49.960;8.018;2023-11-21T05:53:24;9.90;;;3.50;;
6987;SDS011;3534;49.960;8.018;2023-11-21T05:55:51;5.03;;;3.93;;
6987;SDS011;3534;49.960;8.018;2023-11-21T05:58:18;5.33;;;3.20;;
6987;SDS011;3534;49.960;8.018;2023-11-21T06:00:44;6.27;;;2.93;;
6987;SDS011;3534;49.960;8.018;2023-11-21T06:03:11;3.77;;;3.20;;
6987;SDS011;3534;49.960;8.018;2023-11-21T06:05:38;4.20;;;3.07;;
6987;SDS011;3534;49.960;8.018;2023-11-21T06:08:06;4.10;;;3.37;;
6987;SDS011;3534;49.960;8.018;2023-11-21T06:10:33;6.40;;;4.80;;
6987;SDS011;3534;49.960;8.018;2023-11-21T06:13:00;4.43;;;3.63;;
6987;SDS011;3534;49.960;8.018;2023-11-21T06:15:28;3.43;;;3.13;;
6987;SDS011;3534;49.960;8.018;2023-11-21T06:17:55;4.00;;;3.60;;
6987;SDS011;3534;49.960;8.018;2023-11-21T06:20:22;3.17;;;2.73;;
6987;SDS011;3534;49.960;8.018;2023-11-21T06:22:49;3.43;;;3.10;;
6987;SDS011;3534;49.960;8.018;2023-11-21T06:25:17;6.23;;;3.80;;
6987;SDS011;3534;49.960;8.018;2023-11-21T06:27:45;4.03;;;3.63;;
6987;SDS011;3534;49.960;8.018;2023-11-21T06:30:13;6.90;;;3.90;;
6987;SDS011;3534;49.960;8.018;2023-11-21T06:32:40;6.90;;;3.63;;
6987;SDS011;3534;49.960;8.018;2023-11-21T06:35:10;3.73;;;3.40;;
6987;SDS011;3534;49.960;8.018;2023-11-21T06:37:38;3.63;;;3.00;;
6987;SDS011;3534;49.960;8.018;2023-11-21T06:40:05;2.67;;;2.47;;
6987;SDS011;3534;49.960;8.018;2023-11-21T06:42:35;2.87;;;2.67;;
6987;SDS011;3534;49.960;8.018;2023-11-21T06:45:03;4.20;;;3.47;;
6987;SDS011;3534;49.960;8.018;2023-11-21T06:47:30;2.40;;;2.20;;
6987;SDS011;3534;49.960;8.018;2023-11-21T06:49:58;2.80;;;2.60;;
6987;SDS011;3534;49.960;8.018;2023-11-21T06:52:25;3.83;;;3.17;;
6987;SDS011;3534;49.960;8.018;2023-11-21T06:54:52;4.10;;;2.77;;
6987;SDS011;3534;49.960;8.018;2023-11-21T06:57:19;2.93;;;2.63;;
6987;SDS011;3534;49.960;8.018;2023-11-21T06:59:47;4.20;;;3.10;;
6987;SDS011;3534;49.960;8.018;2023-11-21T07:02:15;4.07;;;2.47;;
6987;SDS011;3534;49.960;8.018;2023-11-21T07:04:43;3.03;;;2.73;;
6987;SDS011;3534;49.960;8.018;2023-11-21T07:07:10;4.90;;;2.90;;
6987;SDS011;3534;49.960;8.018;2023-11-21T07:09:36;5.07;;;2.90;;
6987;SDS011;3534;49.960;8.018;2023-11-21T07:12:03;6.17;;;5.10;;
6987;SDS011;3534;49.960;8.018;2023-11-21T07:14:32;5.50;;;4.60;;
6987;SDS011;3534;49.960;8.018;2023-11-21T07:17:00;7.10;;;6.37;;
6987;SDS011;3534;49.960;8.018;2023-11-21T07:19:27;10.00;;;8.37;;
6987;SDS011;3534;49.960;8.018;2023-11-21T07:21:54;8.73;;;6.57;;
6987;SDS011;3534;49.960;8.018;2023-11-21T07:24:21;6.97;;;6.30;;
6987;SDS011;3534;49.960;8.018;2023-11-21T07:26:48;6.70;;;6.10;;
6987;SDS011;3534;49.960;8.018;2023-11-21T07:29:15;7.10;;;5.17;;
6987;SDS011;3534;49.960;8.018;2023-11-21T07:31:41;4.33;;;3.87;;
6987;SDS011;3534;49.960;8.018;2023-11-21T07:34:10;4.73;;;4.10;;
6987;SDS011;3534;49.960;8.018;2023-11-21T07:36:37;4.53;;;3.97;;
6987;SDS011;3534;49.960;8.018;2023-11-21T07:39:03;4.50;;;4.10;;
6987;SDS011;3534;49.960;8.018;2023-11-21T07:41:31;4.90;;;4.40;;
6987;SDS011;3534;49.960;8.018;2023-11-21T07:43:58;6.30;;;3.40;;
6987;SDS011;3534;49.960;8.018;2023-11-21T07:46:25;3.97;;;2.93;;
6987;SDS011;3534;49.960;8.018;2023-11-21T07:48:52;4.30;;;4.00;;
6987;SDS011;3534;49.960;8.018;2023-11-21T07:51:21;7.40;;;5.77;;
6987;SDS011;3534;49.960;8.018;2023-11-21T07:53:48;5.30;;;4.80;;
6987;SDS011;3534;49.960;8.018;2023-11-21T07:56:14;6.13;;;4.13;;
6987;SDS011;3534;49.960;8.018;2023-11-21T07:58:41;5.23;;;4.73;;
6987;SDS011;3534;49.960;8.018;2023-11-21T08:01:08;5.70;;;5.03;;
6987;SDS011;3534;49.960;8.018;2023-11-21T08:03:34;4.33;;;2.97;;
6987;SDS011;3534;49.960;8.018;2023-11-21T08:06:01;3.23;;;2.93;;
6987;SDS011;3534;49.960;8.018;2023-11-21T08:08:32;6.70;;;3.97;;
6987;SDS011;3534;49.960;8.018;2023-11-21T08:10:58;7.90;;;3.37;;
6987;SDS011;3534;49.960;8.018;2023-11-21T08:13:27;2.80;;;2.60;;
6987;SDS011;3534;49.960;8.018;2023-11-21T08:15:55;3.63;;;2.63;;
6987;SDS011;3534;49.960;8.018;2023-11-21T08:18:26;1.73;;;1.63;;
6987;SDS011;3534;49.960;8.018;2023-11-21T08:20:53;2.23;;;2.03;;
6987;SDS011;3534;49.960;8.018;2023-11-21T08:23:20;2.00;;;1.87;;
6987;SDS011;3534;49.960;8.018;2023-11-21T08:25:51;1.80;;;1.70;;
6987;SDS011;3534;49.960;8.018;2023-11-21T08:28:18;1.70;;;1.47;;
6987;SDS011;3534;49.960;8.018;2023-11-21T08:30:48;1.63;;;1.53;;
6987;SDS011;3534;49.960;8.018;2023-11-21T08:33:15;3.30;;;2.10;;
6987;SDS011;3534;49.960;8.018;2023-11-21T08:35:41;1.70;;;1.60;;
6987;SDS011;3534;49.960;8.018;2023-11-21T08:38:08;1.60;;;1.30;;
6987;SDS011;3534;49.960;8.018;2023-11-21T08:40:35;7.67;;;6.73;;
6987;SDS011;3534;49.960;8.018;2023-11-21T08:43:04;6.40;;;4.20;;
6987;SDS011;3534;49.960;8.018;2023-11-21T08:45:30;3.53;;;2.40;;
6987;SDS011;3534;49.960;8.018;2023-11-21T08:47:59;4.40;;;2.40;;
6987;SDS011;3534;49.960;8.018;2023-11-21T08:50:25;2.73;;;2.33;;
6987;SDS011;3534;49.960;8.018;2023-11-21T08:52:53;3.37;;;2.23;;
6987;SDS011;3534;49.960;8.018;2023-11-21T08:55:20;3.83;;;2.50;;
6987;SDS011;3534;49.960;8.018;2023-11-21T08:57:47;5.73;;;2.70;;
6987;SDS011;3534;49.960;8.018;2023-11-21T09:00:16;2.03;;;1.60;;
6987;SDS011;3534;49.960;8.018;2023-11-21T09:02:43;1.47;;;1.37;;
6987;SDS011;3534;49.960;8.018;2023-11-21T09:05:10;2.10;;;1.00;;
6987;SDS011;3534;49.960;8.018;2023-11-21T09:07:38;1.13;;;1.03;;
6987;SDS011;3534;49.960;8.018;2023-11-21T09:10:07;3.17;;;1.63;;
6987;SDS011;3534;49.960;8.018;2023-11-21T09:12:34;2.40;;;1.50;;
6987;SDS011;3534;49.960;8.018;2023-11-21T09:15:02;2.37;;;1.77;;
6987;SDS011;3534;49.960;8.018;2023-11-21T09:17:31;2.13;;;1.33;;
6987;SDS011;3534;49.960;8.018;2023-11-21T09:19:59;2.93;;;1.47;;
6987;SDS011;3534;49.960;8.018;2023-11-21T09:22:26;1.20;;;0.90;;
6987;SDS011;3534;49.960;8.018;2023-11-21T09:24:54;3.73;;;1.60;;
6987;SDS011;3534;49.960;8.018;2023-11-21T09:27:22;1.77;;;1.67;;
6987;SDS011;3534;49.960;8.018;2023-11-21T09:29:50;5.70;;;1.77;;
6987;SDS011;3534;49.960;8.018;2023-11-21T09:32:17;3.47;;;1.10;;
6987;SDS011;3534;49.960;8.018;2023-11-21T09:34:47;5.87;;;1.40;;
6987;SDS011;3534;49.960;8.018;2023-11-21T09:37:14;3.63;;;1.43;;
6987;SDS011;3534;49.960;8.018;2023-11-21T09:39:41;3.17;;;1.60;;
6987;SDS011;3534;49.960;8.018;2023-11-21T09:42:08;1.53;;;1.43;;
6987;SDS011;3534;49.960;8.018;2023-11-21T09:44:40;2.60;;;1.40;;
6987;SDS011;3534;49.960;8.018;2023-11-21T09:47:14;9.37;;;1.80;;
6987;SDS011;3534;49.960;8.018;2023-11-21T09:49:42;2.47;;;1.40;;
6987;SDS011;3534;49.960;8.018;2023-11-21T09:52:14;2.67;;;1.60;;
6987;SDS011;3534;49.960;8.018;2023-11-21T09:54:48;2.10;;;1.50;;
6987;SDS011;3534;49.960;8.018;2023-11-21T09:57:16;2.13;;;1.70;;
6987;SDS011;3534;49.960;8.018;2023-11-21T09:59:43;2.80;;;1.40;;
6987;SDS011;3534;49.960;8.018;2023-11-21T10:02:13;2.23;;;1.30;;
6987;SDS011;3534;49.960;8.018;2023-11-21T10:04:43;3.13;;;1.53;;
6987;SDS011;3534;49.960;8.018;2023-11-21T10:07:10;2.80;;;1.40;;
6987;SDS011;3534;49.960;8.018;2023-11-21T10:09:41;1.80;;;1.37;;
6987;SDS011;3534;49.960;8.018;2023-11-21T10:12:08;4.50;;;1.90;;
6987;SDS011;3534;49.960;8.018;2023-11-21T10:14:37;2.50;;;1.50;;
6987;SDS011;3534;49.960;8.018;2023-11-21T10:17:09;3.03;;;1.47;;
6987;SDS011;3534;49.960;8.018;2023-11-21T10:19:38;3.20;;;1.60;;
6987;SDS011;3534;49.960;8.018;2023-11-21T10:22:05;3.93;;;1.70;;
6987;SDS011;3534;49.960;8.018;2023-11-21T10:24:33;3.10;;;1.73;;
6987;SDS011;3534;49.960;8.018;2023-11-21T10:27:03;4.17;;;2.73;;
6987;SDS011;3534;49.960;8.018;2023-11-21T10:29:30;7.93;;;2.40;;
6987;SDS011;3534;49.960;8.018;2023-11-21T10:32:00;3.53;;;2.00;;
6987;SDS011;3534;49.960;8.018;2023-11-21T10:34:28;2.83;;;2.03;;
6987;SDS011;3534;49.960;8.018;2023-11-21T10:36:55;13.87;;;2.13;;
6987;SDS011;3534;49.960;8.018;2023-11-21T10:39:24;5.07;;;2.30;;
6987;SDS011;3534;49.960;8.018;2023-11-21T10:41:55;7.20;;;2.40;;
6987;SDS011;3534;49.960;8.018;2023-11-21T10:44:24;3.53;;;2.30;;
6987;SDS011;3534;49.960;8.018;2023-11-21T10:46:51;6.83;;;2.63;;
6987;SDS011;3534;49.960;8.018;2023-11-21T10:49:21;2.83;;;1.97;;
6987;SDS011;3534;49.960;8.018;2023-11-21T10:51:49;4.50;;;2.00;;
6987;SDS011;3534;49.960;8.018;2023-11-21T10:54:18;5.10;;;1.90;;
6987;SDS011;3534;49.960;8.018;2023-11-21T10:56:46;5.57;;;2.00;;
6987;SDS011;3534;49.960;8.018;2023-11-21T10:59:16;5.93;;;2.50;;
6987;SDS011;3534;49.960;8.018;2023-11-21T11:01:47;3.37;;;2.07;;
6987;SDS011;3534;49.960;8.018;2023-11-21T11:04:15;6.83;;;2.00;;
6987;SDS011;3534;49.960;8.018;2023-11-21T11:06:44;3.53;;;1.97;;
6987;SDS011;3534;49.960;8.018;2023-11-21T11:09:16;2.50;;;1.83;;
6987;SDS011;3534;49.960;8.018;2023-11-21T11:11:43;3.67;;;2.67;;
6987;SDS011;3534;49.960;8.018;2023-11-21T11:14:11;3.53;;;2.00;;
6987;SDS011;3534;49.960;8.018;2023-11-21T11:16:39;2.90;;;1.60;;
6987;SDS011;3534;49.960;8.018;2023-11-21T11:19:09;4.60;;;2.73;;
6987;SDS011;3534;49.960;8.018;2023-11-21T11:21:40;2.40;;;1.90;;
6987;SDS011;3534;49.960;8.018;2023-11-21T11:24:28;9.87;;;2.80;;
6987;SDS011;3534;49.960;8.018;2023-11-21T11:27:09;6.73;;;1.90;;
6987;SDS011;3534;49.960;8.018;2023-11-21T11:29:52;4.07;;;1.43;;
6987;SDS011;3534;49.960;8.018;2023-11-21T11:32:31;6.77;;;2.03;;
6987;SDS011;3534;49.960;8.018;2023-11-21T11:35:17;2.13;;;1.83;;
6987;SDS011;3534;49.960;8.018;2023-11-21T11:37:52;3.90;;;1.93;;
6987;SDS011;3534;49.960;8.018;2023-11-21T11:40:20;2.60;;;1.73;;
6987;SDS011;3534;49.960;8.018;2023-11-21T11:42:56;3.50;;;2.10;;
6987;SDS011;3534;49.960;8.018;2023-11-21T11:45:25;3.27;;;1.70;;
6987;SDS011;3534;49.960;8.018;2023-11-21T11:47:59;9.60;;;2.40;;
6987;SDS011;3534;49.960;8.018;2023-11-21T11:50:27;5.40;;;1.97;;
6987;SDS011;3534;49.960;8.018;2023-11-21T11:52:54;4.00;;;2.13;;
6987;SDS011;3534;49.960;8.018;2023-11-21T11:55:22;11.93;;;3.10;;
6987;SDS011;3534;49.960;8.018;2023-11-21T11:57:51;1.93;;;1.70;;
6987;SDS011;3534;49.960;8.018;2023-11-21T12:00:21;4.03;;;1.97;;
6987;SDS011;3534;49.960;8.018;2023-11-21T12:02:50;4.80;;;2.10;;
6987;SDS011;3534;49.960;8.018;2023-11-21T12:05:18;3.43;;;2.00;;
6987;SDS011;3534;49.960;8.018;2023-11-21T12:07:48;3.43;;;1.93;;
6987;SDS011;3534;49.960;8.018;2023-11-21T12:10:18;5.10;;;2.33;;
6987;SDS011;3534;49.960;8.018;2023-11-21T12:12:47;3.67;;;2.30;;
6987;SDS011;3534;49.960;8.018;2023-11-21T12:15:14;5.40;;;2.27;;
6987;SDS011;3534;49.960;8.018;2023-11-21T12:17:42;4.10;;;1.90;;
6987;SDS011;3534;49.960;8.018;2023-11-21T12:20:10;3.73;;;2.00;;
6987;SDS011;3534;49.960;8.018;2023-11-21T12:22:44;5.53;;;2.13;;
6987;SDS011;3534;49.960;8.018;2023-11-21T12:25:15;5.57;;;2.53;;
6987;SDS011;3534;49.960;8.018;2023-11-21T12:27:43;6.57;;;3.53;;
6987;SDS011;3534;49.960;8.018;2023-11-21T12:30:11;5.03;;;3.13;;
6987;SDS011;3534;49.960;8.018;2023-11-21T12:32:40;10.37;;;3.27;;
6987;SDS011;3534;49.960;8.018;2023-11-21T12:35:08;5.30;;;2.90;;
6987;SDS011;3534;49.960;8.018;2023-11-21T12:37:35;4.57;;;3.20;;
6987;SDS011;3534;49.960;8.018;2023-11-21T12:40:02;5.80;;;3.97;;
6987;SDS011;3534;49.960;8.018;2023-11-21T12:42:32;7.80;;;3.67;;
6987;SDS011;3534;49.960;8.018;2023-11-21T12:45:09;4.00;;;2.63;;
6987;SDS011;3534;49.960;8.018;2023-11-21T12:47:45;7.27;;;3.57;;
6987;SDS011;3534;49.960;8.018;2023-11-21T12:50:13;5.60;;;3.70;;
6987;SDS011;3534;49.960;8.018;2023-11-21T12:52:43;5.80;;;3.70;;
6987;SDS011;3534;49.960;8.018;2023-11-21T12:55:13;7.33;;;3.30;;
6987;SDS011;3534;49.960;8.018;2023-11-21T12:57:43;3.60;;;2.87;;
6987;SDS011;3534;49.960;8.018;2023-11-21T13:00:11;5.70;;;3.67;;
6987;SDS011;3534;49.960;8.018;2023-11-21T13:02:51;3.23;;;2.90;;
6987;SDS011;3534;49.960;8.018;2023-11-21T13:05:28;7.30;;;4.37;;
6987;SDS011;3534;49.960;8.018;2023-11-21T13:07:57;5.90;;;3.60;;
6987;SDS011;3534;49.960;8.018;2023-11-21T13:10:27;9.30;;;4.80;;
6987;SDS011;3534;49.960;8.018;2023-11-21T13:12:57;6.30;;;3.97;;
6987;SDS011;3534;49.960;8.018;2023-11-21T13:15:25;5.67;;;3.37;;
6987;SDS011;3534;49.960;8.018;2023-11-21T13:17:53;5.10;;;3.17;;
6987;SDS011;3534;49.960;8.018;2023-11-21T13:20:21;5.60;;;3.57;;
6987;SDS011;3534;49.960;8.018;2023-11-21T13:22:48;4.50;;;3.60;;
6987;SDS011;3534;49.960;8.018;2023-11-21T13:25:17;6.47;;;4.83;;
6987;SDS011;3534;49.960;8.018;2023-11-21T13:27:44;8.23;;;5.30;;
6987;SDS011;3534;49.960;8.018;2023-11-21T13:30:13;5.27;;;3.33;;
6987;SDS011;3534;49.960;8.018;2023-11-21T13:32:41;9.40;;;6.60;;
6987;SDS011;3534;49.960;8.018;2023-11-21T13:35:09;6.73;;;3.47;;
6987;SDS011;3534;49.960;8.018;2023-11-21T13:37:48;6.40;;;4.70;;
6987;SDS011;3534;49.960;8.018;2023-11-21T13:40:21;6.37;;;4.50;;
6987;SDS011;3534;49.960;8.018;2023-11-21T13:42:51;7.40;;;5.63;;
6987;SDS011;3534;49.960;8.018;2023-11-21T13:45:21;11.27;;;5.50;;
6987;SDS011;3534;49.960;8.018;2023-11-21T13:47:48;13.90;;;8.33;;
6987;SDS011;3534;49.960;8.018;2023-11-21T13:50:17;4.20;;;2.97;;
6987;SDS011;3534;49.960;8.018;2023-11-21T13:52:48;6.17;;;2.87;;
6987;SDS011;3534;49.960;8.018;2023-11-21T13:55:16;5.20;;;3.50;;
6987;SDS011;3534;49.960;8.018;2023-11-21T13:57:43;6.70;;;3.70;;
6987;SDS011;3534;49.960;8.018;2023-11-21T14:00:12;7.60;;;4.43;;
6987;SDS011;3534;49.960;8.018;2023-11-21T14:03:02;6.30;;;3.50;;
6987;SDS011;3534;49.960;8.018;2023-11-21T14:05:33;7.53;;;3.97;;
6987;SDS011;3534;49.960;8.018;2023-11-21T14:08:00;9.70;;;4.43;;
6987;SDS011;3534;49.960;8.018;2023-11-21T14:10:29;13.63;;;6.87;;
6987;SDS011;3534;49.960;8.018;2023-11-21T14:13:05;10.80;;;5.17;;
6987;SDS011;3534;49.960;8.018;2023-11-21T14:15:32;10.67;;;4.83;;
6987;SDS011;3534;49.960;8.018;2023-11-21T14:18:04;8.10;;;4.43;;
6987;SDS011;3534;49.960;8.018;2023-11-21T14:20:33;6.20;;;4.77;;
6987;SDS011;3534;49.960;8.018;2023-11-21T14:23:01;9.80;;;5.17;;
6987;SDS011;3534;49.960;8.018;2023-11-21T14:25:28;5.67;;;3.47;;
6987;SDS011;3534;49.960;8.018;2023-11-21T14:27:55;9.23;;;3.50;;
6987;SDS011;3534;49.960;8.018;2023-11-21T14:30:22;7.80;;;3.27;;
6987;SDS011;3534;49.960;8.018;2023-11-21T14:32:49;5.73;;;4.10;;
6987;SDS011;3534;49.960;8.018;2023-11-21T14:35:18;9.80;;;3.70;;
6987;SDS011;3534;49.960;8.018;2023-11-21T14:37:45;7.17;;;5.50;;
6987;SDS011;3534;49.960;8.018;2023-11-21T14:40:12;6.67;;;4.57;;
6987;SDS011;3534;49.960;8.018;2023-11-21T14:42:41;10.13;;;4.83;;
6987;SDS011;3534;49.960;8.018;2023-11-21T14:45:12;10.90;;;7.20;;
6987;SDS011;3534;49.960;8.018;2023-11-21T14:47:42;15.80;;;12.77;;
6987;SDS011;3534;49.960;8.018;2023-11-21T14:50:14;15.13;;;12.03;;
6987;SDS011;3534;49.960;8.018;2023-11-21T14:53:09;9.80;;;6.93;;
6987;SDS011;3534;49.960;8.018;2023-11-21T14:55:38;8.10;;;5.40;;
6987;SDS011;3534;49.960;8.018;2023-11-21T14:58:18;7.70;;;4.40;;
6987;SDS011;3534;49.960;8.018;2023-11-21T15:00:51;6.90;;;3.83;;
6987;SDS011;3534;49.960;8.018;2023-11-21T15:03:22;8.50;;;3.50;;
6987;SDS011;3534;49.960;8.018;2023-11-21T15:06:14;6.60;;;3.93;;
6987;SDS011;3534;49.960;8.018;2023-11-21T15:08:53;3.63;;;2.87;;
6987;SDS011;3534;49.960;8.018;2023-11-21T15:11:38;5.30;;;3.47;;
6987;SDS011;3534;49.960;8.018;2023-11-21T15:14:04;5.60;;;3.17;;
6987;SDS011;3534;49.960;8.018;2023-11-21T15:16:33;5.50;;;3.07;;
6987;SDS011;3534;49.960;8.018;2023-11-21T15:19:03;6.90;;;4.50;;
6987;SDS011;3534;49.960;8.018;2023-11-21T15:21:31;7.97;;;5.03;;
6987;SDS011;3534;49.960;8.018;2023-11-21T15:23:59;6.00;;;3.93;;